AUA10B LSZH-LOWK
Flight info
| Callsign | AUA10B |
|---|---|
| Flight time | 0h 50m |
| Altitude | 27000 |
| Route | DEGES Z2 UMVEG DCT EVAXI EVAXI2A |
| Aircraft | B738/M-SDE2E3FGHIRWXY/LB1 |
Departure
| Time | 2026-04-25 23:21 |
|---|---|
| Airport | Zürich Airport (LSZH) |
Arrival
| Time | 2026-04-26 00:11 |
|---|---|
| Airport | Klagenfurt Airport (LOWK) |
| Time | Latitude | Longitude | Altitude | Speed | Heading |
|---|---|---|---|---|---|
| 2026-04-25 23:04 | 47.45434 | 8.55748 | 1406 ft | 0 kts | 185° |
| 2026-04-25 23:13 | 47.45450 | 8.55750 | 1413 ft | 4 kts | 191° |
| 2026-04-25 23:13 | 47.45475 | 8.55756 | 1414 ft | 4 kts | 168° |
| 2026-04-25 23:13 | 47.45495 | 8.55746 | 1406 ft | 4 kts | 143° |
| 2026-04-25 23:14 | 47.45510 | 8.55715 | 1413 ft | 4 kts | 101° |
| 2026-04-25 23:14 | 47.45512 | 8.55701 | 1406 ft | 0 kts | 95° |
| 2026-04-25 23:17 | 47.45511 | 8.55703 | 1407 ft | 3 kts | 96° |
| 2026-04-25 23:17 | 47.45502 | 8.55841 | 1414 ft | 19 kts | 96° |
| 2026-04-25 23:18 | 47.45486 | 8.56063 | 1406 ft | 23 kts | 96° |
| 2026-04-25 23:18 | 47.45499 | 8.56247 | 1408 ft | 17 kts | 56° |
| 2026-04-25 23:18 | 47.45570 | 8.56376 | 1414 ft | 16 kts | 52° |
| 2026-04-25 23:18 | 47.45590 | 8.56544 | 1415 ft | 17 kts | 95° |
| 2026-04-25 23:19 | 47.45577 | 8.56726 | 1422 ft | 18 kts | 96° |
| 2026-04-25 23:19 | 47.45566 | 8.56900 | 1420 ft | 13 kts | 93° |
| 2026-04-25 23:19 | 47.45601 | 8.57010 | 1423 ft | 12 kts | 21° |
| 2026-04-25 23:19 | 47.45663 | 8.56979 | 1424 ft | 10 kts | 284° |
| 2026-04-25 23:20 | 47.45675 | 8.56838 | 1421 ft | 27 kts | 276° |
| 2026-04-25 23:20 | 47.45716 | 8.56238 | 1414 ft | 89 kts | 275° |
| 2026-04-25 23:20 | 47.45803 | 8.55038 | 1392 ft | 144 kts | 275° |
| 2026-04-25 23:20 | 47.45921 | 8.53378 | 1596 ft | 172 kts | 274° |
| 2026-04-25 23:21 | 47.46012 | 8.51605 | 2277 ft | 173 kts | 274° |
| 2026-04-25 23:21 | 47.46127 | 8.49754 | 2699 ft | 195 kts | 274° |
| 2026-04-25 23:21 | 47.46086 | 8.47619 | 3027 ft | 217 kts | 251° |
| 2026-04-25 23:21 | 47.45256 | 8.45888 | 4032 ft | 204 kts | 223° |
| 2026-04-25 23:22 | 47.44217 | 8.44436 | 4798 ft | 214 kts | 231° |
| 2026-04-25 23:22 | 47.43513 | 8.42476 | 4972 ft | 217 kts | 252° |
| 2026-04-25 23:22 | 47.43059 | 8.40284 | 4993 ft | 224 kts | 255° |
| 2026-04-25 23:23 | 47.41323 | 8.36683 | 5013 ft | 231 kts | 202° |
| 2026-04-25 23:23 | 47.39742 | 8.36562 | 5010 ft | 233 kts | 160° |
| 2026-04-25 23:23 | 47.38439 | 8.37905 | 5072 ft | 231 kts | 127° |
| 2026-04-25 23:23 | 47.37934 | 8.40115 | 5063 ft | 233 kts | 89° |
| 2026-04-25 23:24 | 47.38386 | 8.42365 | 5076 ft | 233 kts | 62° |
| 2026-04-25 23:24 | 47.39135 | 8.44672 | 5046 ft | 259 kts | 64° |
| 2026-04-25 23:24 | 47.39896 | 8.47115 | 5043 ft | 269 kts | 64° |
| 2026-04-25 23:24 | 47.40655 | 8.49564 | 5032 ft | 268 kts | 64° |
| 2026-04-25 23:25 | 47.41448 | 8.52101 | 5669 ft | 271 kts | 64° |
| 2026-04-25 23:25 | 47.42221 | 8.54553 | 6505 ft | 276 kts | 64° |
| 2026-04-25 23:25 | 47.43039 | 8.57147 | 7334 ft | 281 kts | 64° |
| 2026-04-25 23:25 | 47.43796 | 8.59552 | 8067 ft | 286 kts | 64° |
| 2026-04-25 23:26 | 47.44637 | 8.62230 | 8854 ft | 291 kts | 64° |
| 2026-04-25 23:26 | 47.45495 | 8.64963 | 9616 ft | 296 kts | 64° |
| 2026-04-25 23:26 | 47.46124 | 8.67871 | 10456 ft | 299 kts | 78° |
| 2026-04-25 23:26 | 47.46330 | 8.70909 | 11054 ft | 311 kts | 85° |
| 2026-04-25 23:27 | 47.46460 | 8.74185 | 11458 ft | 328 kts | 85° |
| 2026-04-25 23:27 | 47.46563 | 8.77453 | 11827 ft | 344 kts | 86° |
| 2026-04-25 23:27 | 47.46648 | 8.81071 | 12184 ft | 361 kts | 89° |
| 2026-04-25 23:27 | 47.46337 | 8.84800 | 12769 ft | 370 kts | 100° |
| 2026-04-25 23:28 | 47.45843 | 8.88545 | 13438 ft | 375 kts | 96° |
| 2026-04-25 23:28 | 47.45518 | 8.92386 | 14137 ft | 379 kts | 95° |
| 2026-04-25 23:28 | 47.45231 | 8.96275 | 14844 ft | 383 kts | 94° |
| 2026-04-25 23:28 | 47.44989 | 8.99985 | 15494 ft | 386 kts | 94° |
| 2026-04-25 23:29 | 47.44734 | 9.03964 | 16161 ft | 390 kts | 94° |
| 2026-04-25 23:29 | 47.44464 | 9.07971 | 16815 ft | 394 kts | 94° |
| 2026-04-25 23:29 | 47.44216 | 9.11467 | 17361 ft | 397 kts | 94° |
| 2026-04-25 23:29 | 47.43920 | 9.15542 | 17975 ft | 401 kts | 94° |
| 2026-04-25 23:30 | 47.43623 | 9.19654 | 18576 ft | 404 kts | 94° |
| 2026-04-25 23:30 | 47.43328 | 9.23802 | 19141 ft | 408 kts | 94° |
| 2026-04-25 23:30 | 47.43049 | 9.27726 | 19657 ft | 412 kts | 94° |
| 2026-04-25 23:30 | 47.42756 | 9.31831 | 20181 ft | 415 kts | 94° |
| 2026-04-25 23:31 | 47.42452 | 9.36044 | 20685 ft | 419 kts | 94° |
| 2026-04-25 23:31 | 47.42146 | 9.40235 | 21182 ft | 422 kts | 94° |
| 2026-04-25 23:31 | 47.41832 | 9.44508 | 21662 ft | 426 kts | 93° |
| 2026-04-25 23:31 | 47.41511 | 9.48869 | 22133 ft | 429 kts | 93° |
| 2026-04-25 23:32 | 47.41186 | 9.53264 | 22573 ft | 432 kts | 93° |
| 2026-04-25 23:32 | 47.40857 | 9.57696 | 22998 ft | 436 kts | 93° |
| 2026-04-25 23:32 | 47.40583 | 9.61360 | 23353 ft | 438 kts | 93° |
| 2026-04-25 23:32 | 47.40253 | 9.65754 | 23760 ft | 441 kts | 93° |
| 2026-04-25 23:33 | 47.39959 | 9.69659 | 24108 ft | 443 kts | 93° |
| 2026-04-25 23:33 | 47.39608 | 9.74306 | 24511 ft | 446 kts | 93° |
| 2026-04-25 23:33 | 47.39261 | 9.78869 | 24881 ft | 449 kts | 93° |
| 2026-04-25 23:33 | 47.38908 | 9.83464 | 25286 ft | 451 kts | 94° |
| 2026-04-25 23:34 | 47.38553 | 9.88067 | 25652 ft | 453 kts | 94° |
| 2026-04-25 23:34 | 47.38194 | 9.92690 | 26063 ft | 453 kts | 94° |
| 2026-04-25 23:34 | 47.37837 | 9.97283 | 26467 ft | 453 kts | 94° |
| 2026-04-25 23:34 | 47.37475 | 10.01899 | 26899 ft | 453 kts | 94° |
| 2026-04-25 23:35 | 47.37235 | 10.04955 | 27166 ft | 453 kts | 94° |
| 2026-04-25 23:35 | 47.36869 | 10.09603 | 27203 ft | 458 kts | 94° |
| 2026-04-25 23:35 | 47.36500 | 10.14267 | 27208 ft | 458 kts | 94° |
| 2026-04-25 23:35 | 47.36155 | 10.18572 | 27201 ft | 454 kts | 94° |
| 2026-04-25 23:36 | 47.35785 | 10.23177 | 27214 ft | 452 kts | 94° |
| 2026-04-25 23:36 | 47.35414 | 10.27779 | 27203 ft | 450 kts | 94° |
| 2026-04-25 23:36 | 47.35071 | 10.32012 | 27193 ft | 451 kts | 94° |
| 2026-04-25 23:36 | 47.34700 | 10.36581 | 27203 ft | 452 kts | 94° |
| 2026-04-25 23:37 | 47.34334 | 10.41074 | 27186 ft | 451 kts | 94° |
| 2026-04-25 23:37 | 47.33957 | 10.45656 | 27205 ft | 451 kts | 94° |
| 2026-04-25 23:37 | 47.33577 | 10.50248 | 27220 ft | 451 kts | 94° |
| 2026-04-25 23:37 | 47.33202 | 10.54767 | 27211 ft | 451 kts | 94° |
| 2026-04-25 23:38 | 47.32822 | 10.59322 | 27209 ft | 451 kts | 94° |
| 2026-04-25 23:38 | 47.32447 | 10.63806 | 27208 ft | 450 kts | 94° |
| 2026-04-25 23:38 | 47.32061 | 10.68387 | 27195 ft | 450 kts | 94° |
| 2026-04-25 23:38 | 47.31674 | 10.72957 | 27202 ft | 451 kts | 95° |
| 2026-04-25 23:39 | 47.31297 | 10.77402 | 27194 ft | 450 kts | 94° |
| 2026-04-25 23:39 | 47.30906 | 10.81983 | 27192 ft | 450 kts | 95° |
| 2026-04-25 23:39 | 47.30513 | 10.86558 | 27190 ft | 451 kts | 95° |
| 2026-04-25 23:39 | 47.30137 | 10.90910 | 27189 ft | 451 kts | 95° |
| 2026-04-25 23:40 | 47.29718 | 10.95159 | 27183 ft | 451 kts | 98° |
| 2026-04-25 23:40 | 47.29099 | 10.99700 | 27177 ft | 452 kts | 99° |
| 2026-04-25 23:40 | 47.28444 | 11.04094 | 27172 ft | 453 kts | 101° |
| 2026-04-25 23:40 | 47.27741 | 11.08519 | 27189 ft | 454 kts | 101° |
| 2026-04-25 23:41 | 47.27018 | 11.13004 | 27189 ft | 452 kts | 101° |
| 2026-04-25 23:41 | 47.26313 | 11.17511 | 27189 ft | 453 kts | 100° |
| 2026-04-25 23:41 | 47.25625 | 11.22038 | 27189 ft | 453 kts | 100° |
| 2026-04-25 23:41 | 47.24942 | 11.26554 | 27186 ft | 452 kts | 100° |
| 2026-04-25 23:42 | 47.24249 | 11.31076 | 27187 ft | 453 kts | 101° |
| 2026-04-25 23:42 | 47.23577 | 11.35381 | 27183 ft | 453 kts | 101° |
| 2026-04-25 23:42 | 47.22866 | 11.39897 | 27181 ft | 453 kts | 101° |
| 2026-04-25 23:42 | 47.22158 | 11.44407 | 27188 ft | 453 kts | 101° |
| 2026-04-25 23:43 | 47.21451 | 11.48920 | 27193 ft | 453 kts | 101° |
| 2026-04-25 23:43 | 47.20754 | 11.53376 | 27182 ft | 453 kts | 101° |
| 2026-04-25 23:43 | 47.20046 | 11.57882 | 27185 ft | 453 kts | 101° |
| 2026-04-25 23:43 | 47.19332 | 11.62398 | 27193 ft | 453 kts | 101° |
| 2026-04-25 23:44 | 47.18617 | 11.66907 | 27192 ft | 453 kts | 101° |
| 2026-04-25 23:44 | 47.17900 | 11.71411 | 27185 ft | 453 kts | 101° |
| 2026-04-25 23:44 | 47.17181 | 11.75923 | 27178 ft | 453 kts | 101° |
| 2026-04-25 23:44 | 47.16462 | 11.80428 | 27176 ft | 453 kts | 101° |
| 2026-04-25 23:45 | 47.15750 | 11.84879 | 27188 ft | 453 kts | 101° |
| 2026-04-25 23:45 | 47.15026 | 11.89390 | 27205 ft | 453 kts | 101° |
| 2026-04-25 23:45 | 47.14301 | 11.93883 | 27209 ft | 453 kts | 101° |
| 2026-04-25 23:45 | 47.13575 | 11.98382 | 27209 ft | 453 kts | 101° |
| 2026-04-25 23:46 | 47.12866 | 12.02763 | 27193 ft | 453 kts | 101° |
| 2026-04-25 23:46 | 47.12160 | 12.07114 | 27174 ft | 454 kts | 102° |
| 2026-04-25 23:46 | 47.11424 | 12.11641 | 27186 ft | 456 kts | 102° |
| 2026-04-25 23:46 | 47.10706 | 12.16037 | 27176 ft | 457 kts | 102° |
| 2026-04-25 23:47 | 47.09965 | 12.20555 | 27201 ft | 456 kts | 102° |
| 2026-04-25 23:47 | 47.09222 | 12.25084 | 27200 ft | 457 kts | 102° |
| 2026-04-25 23:47 | 47.08489 | 12.29543 | 27178 ft | 456 kts | 102° |
| 2026-04-25 23:47 | 47.07758 | 12.33978 | 27180 ft | 456 kts | 102° |
| 2026-04-25 23:48 | 47.07011 | 12.38495 | 27193 ft | 456 kts | 102° |
| 2026-04-25 23:48 | 47.06263 | 12.43005 | 26943 ft | 453 kts | 102° |
| 2026-04-25 23:48 | 47.05525 | 12.47449 | 26253 ft | 455 kts | 102° |
| 2026-04-25 23:48 | 47.04774 | 12.51951 | 25756 ft | 452 kts | 102° |
| 2026-04-25 23:49 | 47.04035 | 12.56371 | 25250 ft | 446 kts | 102° |
| 2026-04-25 23:49 | 47.03299 | 12.60761 | 24831 ft | 439 kts | 103° |
| 2026-04-25 23:49 | 47.02576 | 12.65062 | 24462 ft | 431 kts | 103° |
| 2026-04-25 23:49 | 47.01877 | 12.69213 | 24089 ft | 424 kts | 103° |
| 2026-04-25 23:50 | 47.01162 | 12.73454 | 23731 ft | 417 kts | 103° |
| 2026-04-25 23:50 | 47.00487 | 12.77443 | 23336 ft | 411 kts | 103° |
| 2026-04-25 23:50 | 46.99802 | 12.81490 | 22983 ft | 406 kts | 103° |
| 2026-04-25 23:50 | 46.99122 | 12.85483 | 22570 ft | 401 kts | 103° |
| 2026-04-25 23:51 | 46.98450 | 12.89426 | 22199 ft | 397 kts | 103° |
| 2026-04-25 23:51 | 46.97790 | 12.93295 | 21836 ft | 394 kts | 104° |
| 2026-04-25 23:51 | 46.97125 | 12.97179 | 21473 ft | 392 kts | 103° |
| 2026-04-25 23:51 | 46.96481 | 13.00934 | 21108 ft | 389 kts | 104° |
| 2026-04-25 23:52 | 46.95824 | 13.04758 | 20689 ft | 386 kts | 103° |
| 2026-04-25 23:52 | 46.95169 | 13.08559 | 20321 ft | 384 kts | 104° |
| 2026-04-25 23:52 | 46.94518 | 13.12334 | 19943 ft | 381 kts | 104° |
| 2026-04-25 23:52 | 46.93871 | 13.16073 | 19568 ft | 380 kts | 104° |
| 2026-04-25 23:53 | 46.93222 | 13.19817 | 19202 ft | 380 kts | 104° |
| 2026-04-25 23:53 | 46.92566 | 13.23590 | 18839 ft | 383 kts | 104° |
| 2026-04-25 23:53 | 46.91909 | 13.27366 | 18488 ft | 384 kts | 104° |
| 2026-04-25 23:53 | 46.91250 | 13.31146 | 18115 ft | 384 kts | 104° |
| 2026-04-25 23:54 | 46.90588 | 13.34929 | 17762 ft | 384 kts | 104° |
| 2026-04-25 23:54 | 46.89926 | 13.38706 | 17418 ft | 383 kts | 104° |
| 2026-04-25 23:54 | 46.89266 | 13.42464 | 17038 ft | 379 kts | 104° |
| 2026-04-25 23:54 | 46.88613 | 13.46179 | 16642 ft | 376 kts | 104° |
| 2026-04-25 23:55 | 46.87969 | 13.49832 | 16319 ft | 372 kts | 104° |
| 2026-04-25 23:55 | 46.87324 | 13.53480 | 15963 ft | 369 kts | 104° |
| 2026-04-25 23:55 | 46.86684 | 13.57094 | 15623 ft | 366 kts | 104° |
| 2026-04-25 23:55 | 46.86050 | 13.60668 | 15260 ft | 362 kts | 104° |
| 2026-04-25 23:56 | 46.85426 | 13.64180 | 14908 ft | 359 kts | 104° |
| 2026-04-25 23:56 | 46.84799 | 13.67698 | 14544 ft | 356 kts | 104° |
| 2026-04-25 23:56 | 46.84179 | 13.71185 | 14159 ft | 353 kts | 104° |
| 2026-04-25 23:56 | 46.83577 | 13.74552 | 13806 ft | 351 kts | 104° |
| 2026-04-25 23:57 | 46.82961 | 13.77981 | 13429 ft | 348 kts | 104° |
| 2026-04-25 23:57 | 46.82348 | 13.81395 | 13053 ft | 346 kts | 104° |
| 2026-04-25 23:57 | 46.81742 | 13.84766 | 12678 ft | 344 kts | 104° |
| 2026-04-25 23:57 | 46.81132 | 13.88151 | 12325 ft | 341 kts | 104° |
| 2026-04-25 23:58 | 46.80531 | 13.91481 | 11964 ft | 337 kts | 104° |
| 2026-04-25 23:58 | 46.79965 | 13.94616 | 11652 ft | 333 kts | 104° |
| 2026-04-25 23:58 | 46.79376 | 13.97867 | 11313 ft | 329 kts | 104° |
| 2026-04-25 23:58 | 46.78793 | 14.01078 | 10952 ft | 326 kts | 104° |
| 2026-04-25 23:59 | 46.78215 | 14.04261 | 10571 ft | 322 kts | 104° |
| 2026-04-25 23:59 | 46.77645 | 14.07394 | 10199 ft | 316 kts | 104° |
| 2026-04-25 23:59 | 46.77086 | 14.10459 | 9821 ft | 309 kts | 104° |
| 2026-04-25 23:59 | 46.76537 | 14.13463 | 9214 ft | 311 kts | 104° |
| 2026-04-26 00:00 | 46.75991 | 14.16445 | 8800 ft | 305 kts | 104° |
| 2026-04-26 00:00 | 46.75450 | 14.19399 | 8472 ft | 298 kts | 104° |
| 2026-04-26 00:00 | 46.74919 | 14.22287 | 8090 ft | 291 kts | 104° |
| 2026-04-26 00:00 | 46.74400 | 14.25115 | 7728 ft | 286 kts | 105° |
| 2026-04-26 00:01 | 46.73888 | 14.27897 | 7343 ft | 281 kts | 105° |
| 2026-04-26 00:01 | 46.73383 | 14.30633 | 6976 ft | 278 kts | 105° |
| 2026-04-26 00:01 | 46.72883 | 14.33333 | 6623 ft | 274 kts | 105° |
| 2026-04-26 00:01 | 46.72389 | 14.35999 | 6267 ft | 271 kts | 105° |
| 2026-04-26 00:02 | 46.71901 | 14.38638 | 5987 ft | 267 kts | 104° |
| 2026-04-26 00:02 | 46.71438 | 14.41143 | 5665 ft | 264 kts | 104° |
| 2026-04-26 00:02 | 46.70951 | 14.43713 | 5358 ft | 260 kts | 105° |
| 2026-04-26 00:02 | 46.70456 | 14.46188 | 5019 ft | 250 kts | 106° |
| 2026-04-26 00:03 | 46.69977 | 14.48547 | 4991 ft | 240 kts | 106° |
| 2026-04-26 00:03 | 46.69504 | 14.50885 | 5006 ft | 243 kts | 106° |
| 2026-04-26 00:03 | 46.69035 | 14.53218 | 5012 ft | 240 kts | 106° |
| 2026-04-26 00:03 | 46.68573 | 14.55516 | 5048 ft | 233 kts | 107° |
| 2026-04-26 00:04 | 46.68127 | 14.57747 | 5051 ft | 227 kts | 107° |
| 2026-04-26 00:04 | 46.67692 | 14.59928 | 5079 ft | 222 kts | 106° |
| 2026-04-26 00:04 | 46.67178 | 14.62029 | 5049 ft | 217 kts | 123° |
| 2026-04-26 00:04 | 46.66498 | 14.63090 | 5022 ft | 208 kts | 153° |
| 2026-04-26 00:05 | 46.65418 | 14.63612 | 4817 ft | 196 kts | 182° |
| 2026-04-26 00:05 | 46.64162 | 14.63202 | 4655 ft | 174 kts | 201° |
| 2026-04-26 00:05 | 46.63008 | 14.62685 | 4361 ft | 173 kts | 200° |
| 2026-04-26 00:05 | 46.61867 | 14.62182 | 4085 ft | 171 kts | 200° |
| 2026-04-26 00:06 | 46.60741 | 14.61696 | 4060 ft | 169 kts | 199° |
| 2026-04-26 00:06 | 46.59676 | 14.60993 | 4049 ft | 166 kts | 227° |
| 2026-04-26 00:06 | 46.59158 | 14.59548 | 4103 ft | 165 kts | 266° |
| 2026-04-26 00:06 | 46.59344 | 14.57935 | 4195 ft | 163 kts | 286° |
| 2026-04-26 00:07 | 46.59679 | 14.56330 | 4076 ft | 166 kts | 285° |
| 2026-04-26 00:07 | 46.60014 | 14.54698 | 4023 ft | 169 kts | 286° |
| 2026-04-26 00:07 | 46.60343 | 14.53087 | 3895 ft | 166 kts | 285° |
| 2026-04-26 00:07 | 46.60663 | 14.51518 | 3703 ft | 157 kts | 286° |
| 2026-04-26 00:08 | 46.60967 | 14.50020 | 3501 ft | 153 kts | 285° |
| 2026-04-26 00:08 | 46.61265 | 14.48552 | 3356 ft | 151 kts | 286° |
| 2026-04-26 00:08 | 46.61563 | 14.47085 | 3152 ft | 151 kts | 286° |
| 2026-04-26 00:08 | 46.61857 | 14.45630 | 2936 ft | 149 kts | 284° |
| 2026-04-26 00:09 | 46.62147 | 14.44198 | 2744 ft | 146 kts | 286° |
| 2026-04-26 00:09 | 46.62429 | 14.42808 | 2528 ft | 145 kts | 287° |
| 2026-04-26 00:09 | 46.62712 | 14.41408 | 2338 ft | 144 kts | 287° |
| 2026-04-26 00:09 | 46.62991 | 14.40018 | 2138 ft | 143 kts | 286° |
| 2026-04-26 00:10 | 46.63270 | 14.38630 | 1939 ft | 143 kts | 286° |
| 2026-04-26 00:10 | 46.63546 | 14.37259 | 1744 ft | 140 kts | 285° |
| 2026-04-26 00:10 | 46.63818 | 14.35908 | 1558 ft | 139 kts | 286° |
| 2026-04-26 00:10 | 46.64082 | 14.34609 | 1475 ft | 115 kts | 285° |
| 2026-04-26 00:11 | 46.64217 | 14.33929 | 1472 ft | 42 kts | 285° |
| 2026-04-26 00:11 | 46.64300 | 14.33545 | 1478 ft | 38 kts | 287° |
| 2026-04-26 00:11 | 46.64367 | 14.33198 | 1471 ft | 32 kts | 285° |
| 2026-04-26 00:11 | 46.64414 | 14.32971 | 1479 ft | 12 kts | 288° |
| 2026-04-26 00:12 | 46.64468 | 14.32878 | 1478 ft | 13 kts | 332° |
| 2026-04-26 00:12 | 46.64546 | 14.32824 | 1478 ft | 12 kts | 335° |
| 2026-04-26 00:12 | 46.64615 | 14.32758 | 1478 ft | 12 kts | 311° |
| 2026-04-26 00:12 | 46.64644 | 14.32650 | 1478 ft | 12 kts | 289° |
| 2026-04-26 00:13 | 46.64669 | 14.32541 | 1478 ft | 11 kts | 291° |
| 2026-04-26 00:13 | 46.64724 | 14.32477 | 1478 ft | 10 kts | 353° |
| 2026-04-26 00:13 | 46.64771 | 14.32514 | 1478 ft | 8 kts | 60° |
| 2026-04-26 00:13 | 46.64782 | 14.32561 | 1478 ft | 0 kts | 76° |